Time;durP1;ratioP1;P1;durP2;ratioP2;P2;SDS_P1;SDS_P2;PMS_P1;PMS_P2;Temp;Humidity;BMP_temperature;BMP_pressure;BME280_temperature;BME280_humidity;BME280_pressure;Samples;Min_cycle;Max_cycle;Signal;HPM_P1;HPM_P2
2023/09/12 00:00:44;;;;;;;0.00;0.00;;;20.10;99.90;;;;;;5088409;28;20242;-80
2023/09/12 00:03:11;;;;;;;0.00;0.00;;;20.10;99.90;;;;;;5073706;28;20255;-80
2023/09/12 00:05:36;;;;;;;0.00;0.00;;;20.20;99.90;;;;;;5088674;28;20178;-80
2023/09/12 00:08:03;;;;;;;0.00;0.00;;;20.00;99.90;;;;;;5085280;28;20454;-80
2023/09/12 00:10:29;;;;;;;0.00;0.00;;;20.10;99.90;;;;;;5087477;28;20181;-80
2023/09/12 00:12:55;;;;;;;0.00;0.00;;;20.20;99.90;;;;;;5089033;28;21219;-80
2023/09/12 00:15:21;;;;;;;0.00;0.00;;;20.10;99.90;;;;;;5086287;28;20440;-80
2023/09/12 00:17:48;;;;;;;0.00;0.00;;;20.00;99.90;;;;;;5089356;28;20984;-80
2023/09/12 00:20:14;;;;;;;0.00;0.00;;;19.90;99.90;;;;;;5092111;28;20237;-81
2023/09/12 00:22:39;;;;;;;0.00;0.00;;;20.00;99.90;;;;;;5087036;28;20498;-80
2023/09/12 00:25:05;;;;;;;0.00;0.00;;;20.00;99.90;;;;;;5093829;28;20188;-80
2023/09/12 00:27:31;;;;;;;0.00;0.00;;;20.00;99.90;;;;;;5082285;28;20189;-80
2023/09/12 00:29:56;;;;;;;0.00;0.00;;;20.00;99.90;;;;;;5086207;28;21448;-80
2023/09/12 00:32:22;;;;;;;0.00;0.00;;;20.00;99.90;;;;;;5083789;28;20669;-80
2023/09/12 00:34:47;;;;;;;0.00;0.00;;;19.80;99.90;;;;;;5072119;28;20176;-80
2023/09/12 00:37:13;;;;;;;0.00;0.00;;;19.80;99.90;;;;;;5084748;28;20261;-80
2023/09/12 00:39:38;;;;;;;0.00;0.00;;;19.80;99.90;;;;;;5089689;28;20185;-81
2023/09/12 00:42:07;;;;;;;0.00;0.00;;;20.00;99.90;;;;;;5096557;28;20310;-80
2023/09/12 00:44:33;;;;;;;0.00;0.00;;;20.10;99.90;;;;;;5093794;28;20184;-80
2023/09/12 00:46:59;;;;;;;0.00;0.00;;;20.20;99.90;;;;;;5090414;28;20952;-80
2023/09/12 00:49:26;;;;;;;0.00;0.00;;;20.00;99.90;;;;;;5093109;28;20184;-80
2023/09/12 00:51:52;;;;;;;0.00;0.00;;;19.90;99.90;;;;;;5079840;28;20428;-81
2023/09/12 00:54:18;;;;;;;0.00;0.00;;;19.90;99.90;;;;;;5084562;28;20435;-81
2023/09/12 00:56:44;;;;;;;0.00;0.00;;;20.10;99.90;;;;;;5087700;28;20465;-81
2023/09/12 00:59:10;;;;;;;0.00;0.00;;;20.00;99.90;;;;;;5069867;28;20228;-81
2023/09/12 01:01:36;;;;;;;0.00;0.00;;;19.90;99.90;;;;;;5081393;28;20483;-81
2023/09/12 01:04:02;;;;;;;0.00;0.00;;;20.00;99.90;;;;;;5087379;28;20455;-81
2023/09/12 01:06:31;;;;;;;0.00;0.00;;;20.00;99.90;;;;;;5088413;28;20226;-80
2023/09/12 01:08:57;;;;;;;0.00;0.00;;;20.20;99.90;;;;;;5085648;28;20435;-80
2023/09/12 01:11:22;;;;;;;0.00;0.00;;;20.10;99.90;;;;;;5087761;28;20504;-80
2023/09/12 01:13:48;;;;;;;0.00;0.00;;;20.10;99.90;;;;;;5088060;28;20635;-81
2023/09/12 01:16:13;;;;;;;0.00;0.00;;;20.00;99.90;;;;;;5066240;28;20182;-80
2023/09/12 01:18:41;;;;;;;0.00;0.00;;;20.10;99.90;;;;;;5081323;28;20237;-80
2023/09/12 01:21:26;;;;;;;0.00;0.00;;;20.10;99.90;;;;;;5093407;28;20181;-81
2023/09/12 01:24:30;;;;;;;0.00;0.00;;;20.10;99.90;;;;;;5091759;28;22080;-80
2023/09/12 01:27:21;;;;;;;0.00;0.00;;;20.10;99.90;;;;;;5091133;28;20572;-81
2023/09/12 01:29:51;;;;;;;0.00;0.00;;;20.00;99.90;;;;;;5086548;28;20481;-80
2023/09/12 01:32:19;;;;;;;0.00;0.00;;;19.90;99.90;;;;;;5105874;28;20465;-81
2023/09/12 01:34:45;;;;;;;0.00;0.00;;;20.00;99.90;;;;;;5098359;28;20446;-81
2023/09/12 01:37:10;;;;;;;0.00;0.00;;;20.00;99.90;;;;;;5099134;28;20441;-80
2023/09/12 01:39:36;;;;;;;0.00;0.00;;;20.00;99.90;;;;;;5092388;28;20673;-80
2023/09/12 01:42:03;;;;;;;0.00;0.00;;;20.00;99.90;;;;;;5092257;28;20311;-81
2023/09/12 01:44:30;;;;;;;0.00;0.00;;;19.90;99.90;;;;;;5091161;28;20623;-80
2023/09/12 01:47:00;;;;;;;0.00;0.00;;;19.90;99.90;;;;;;5089261;28;20446;-80
2023/09/12 01:49:29;;;;;;;0.00;0.00;;;20.00;99.90;;;;;;5088770;28;20490;-80
2023/09/12 01:51:56;;;;;;;0.00;0.00;;;19.90;99.90;;;;;;5091239;28;20442;-80
2023/09/12 01:54:22;;;;;;;0.00;0.00;;;20.00;99.90;;;;;;5090198;28;20439;-81
2023/09/12 01:56:48;;;;;;;0.00;0.00;;;19.90;99.90;;;;;;5092843;28;20481;-81
2023/09/12 01:59:14;;;;;;;0.00;0.00;;;20.00;99.90;;;;;;5093719;28;20455;-80
2023/09/12 02:01:41;;;;;;;0.00;0.00;;;19.90;99.90;;;;;;5081552;28;20214;-81
2023/09/12 02:04:08;;;;;;;0.00;0.00;;;19.80;99.90;;;;;;5091342;28;20793;-80
2023/09/12 02:06:34;;;;;;;0.00;0.00;;;19.90;99.90;;;;;;5089110;28;20430;-80
2023/09/12 02:09:00;;;;;;;0.00;0.00;;;19.90;99.90;;;;;;5089404;28;20446;-81
2023/09/12 02:11:29;;;;;;;0.00;0.00;;;19.90;99.90;;;;;;5090300;28;20451;-80
2023/09/12 02:13:54;;;;;;;0.00;0.00;;;19.90;99.90;;;;;;5057890;28;20228;-81
2023/09/12 02:16:20;;;;;;;0.00;0.00;;;19.90;99.90;;;;;;5077716;28;20467;-81
2023/09/12 02:18:45;;;;;;;0.00;0.00;;;19.80;99.90;;;;;;5092747;28;20596;-81
2023/09/12 02:21:11;;;;;;;0.00;0.00;;;19.70;99.90;;;;;;5068887;28;20605;-80
2023/09/12 02:23:36;;;;;;;0.00;0.00;;;19.70;99.90;;;;;;5074660;28;20226;-80
2023/09/12 02:26:02;;;;;;;0.00;0.00;;;19.80;99.90;;;;;;5111275;28;20187;-80
2023/09/12 02:28:28;;;;;;;0.00;0.00;;;19.90;99.90;;;;;;5096726;28;20648;-81
2023/09/12 02:30:53;;;;;;;0.00;0.00;;;19.80;99.90;;;;;;5088634;28;20649;-80
2023/09/12 02:33:19;;;;;;;0.00;0.00;;;19.80;99.90;;;;;;5082284;28;20193;-80
2023/09/12 02:35:44;;;;;;;0.00;0.00;;;19.80;99.90;;;;;;5083906;28;20204;-80
2023/09/12 02:38:10;;;;;;;0.00;0.00;;;19.90;99.90;;;;;;5088333;28;20193;-80
2023/09/12 02:40:35;;;;;;;0.00;0.00;;;19.90;99.90;;;;;;5101021;28;20230;-80
2023/09/12 02:43:01;;;;;;;0.00;0.00;;;19.90;99.90;;;;;;5092378;28;20256;-80
2023/09/12 02:45:27;;;;;;;0.00;0.00;;;19.80;99.90;;;;;;5070871;28;20186;-80
2023/09/12 02:47:52;;;;;;;0.00;0.00;;;19.80;99.90;;;;;;5094726;28;20185;-81
2023/09/12 02:50:18;;;;;;;0.00;0.00;;;19.80;99.90;;;;;;5093212;28;20188;-80
2023/09/12 02:52:43;;;;;;;0.00;0.00;;;19.90;99.90;;;;;;5071057;28;20390;-80
2023/09/12 02:55:09;;;;;;;0.00;0.00;;;19.80;99.90;;;;;;5093078;28;20231;-80
2023/09/12 02:57:34;;;;;;;0.00;0.00;;;19.80;99.90;;;;;;5085067;28;20225;-80
2023/09/12 03:00:00;;;;;;;0.00;0.00;;;19.80;99.90;;;;;;5089201;28;20188;-80
2023/09/12 03:02:25;;;;;;;0.00;0.00;;;19.80;99.90;;;;;;5071777;28;20320;-80
2023/09/12 03:04:51;;;;;;;0.00;0.00;;;19.90;99.90;;;;;;5103121;28;20848;-80
2023/09/12 03:07:16;;;;;;;0.00;0.00;;;20.00;99.90;;;;;;5080035;28;20661;-80
2023/09/12 03:09:42;;;;;;;0.00;0.00;;;20.10;99.90;;;;;;5099903;28;20192;-80
2023/09/12 03:12:07;;;;;;;0.00;0.00;;;20.00;99.90;;;;;;5093451;28;20537;-80
2023/09/12 03:14:33;;;;;;;0.00;0.00;;;20.00;99.90;;;;;;5089610;28;20685;-80
2023/09/12 03:16:58;;;;;;;0.00;0.00;;;20.00;99.90;;;;;;5087410;28;20558;-78
2023/09/12 03:19:24;;;;;;;0.00;0.00;;;20.00;99.90;;;;;;5088847;28;20676;-78
2023/09/12 03:21:49;;;;;;;0.00;0.00;;;20.10;99.90;;;;;;5089763;28;20255;-78
2023/09/12 03:24:18;;;;;;;0.00;0.00;;;20.00;99.90;;;;;;5075288;28;20656;-80
2023/09/12 03:26:43;;;;;;;0.00;0.00;;;20.10;99.90;;;;;;5094424;28;20355;-80
2023/09/12 03:29:09;;;;;;;0.00;0.00;;;20.00;99.90;;;;;;5085247;28;20539;-80
2023/09/12 03:31:35;;;;;;;0.00;0.00;;;19.80;99.90;;;;;;5084755;28;20185;-80
2023/09/12 03:34:01;;;;;;;0.00;0.00;;;19.80;99.90;;;;;;5098453;28;20682;-80
2023/09/12 03:36:26;;;;;;;0.00;0.00;;;19.80;99.90;;;;;;5089750;28;20523;-80
2023/09/12 03:38:52;;;;;;;0.00;0.00;;;19.70;99.90;;;;;;5087479;28;20594;-80
2023/09/12 03:41:17;;;;;;;0.00;0.00;;;19.70;99.90;;;;;;5086312;28;20177;-80
2023/09/12 03:43:43;;;;;;;0.00;0.00;;;19.70;99.90;;;;;;5088203;28;20194;-81
2023/09/12 03:46:08;;;;;;;0.00;0.00;;;19.80;99.90;;;;;;5083714;28;20274;-80
2023/09/12 03:48:36;;;;;;;0.00;0.00;;;19.80;99.90;;;;;;5077756;28;20291;-80
2023/09/12 03:51:03;;;;;;;0.00;0.00;;;19.90;99.90;;;;;;5071068;28;20182;-80
2023/09/12 03:53:29;;;;;;;0.00;0.00;;;19.80;99.90;;;;;;5080852;28;20526;-80
2023/09/12 03:55:54;;;;;;;0.00;0.00;;;19.80;99.90;;;;;;5091526;28;21002;-78
2023/09/12 03:58:20;;;;;;;0.00;0.00;;;19.80;99.90;;;;;;5094867;28;20310;-78
2023/09/12 04:00:45;;;;;;;0.00;0.00;;;19.90;99.90;;;;;;5082888;28;20331;-78
2023/09/12 04:03:11;;;;;;;0.00;0.00;;;19.80;99.90;;;;;;5086844;28;20249;-78
2023/09/12 04:05:36;;;;;;;0.00;0.00;;;19.70;99.90;;;;;;5093439;28;20263;-78
2023/09/12 04:08:02;;;;;;;0.00;0.00;;;19.60;99.90;;;;;;5089202;28;20201;-78
2023/09/12 04:10:28;;;;;;;0.00;0.00;;;19.70;99.90;;;;;;5098821;28;20177;-78
2023/09/12 04:12:53;;;;;;;0.00;0.00;;;19.60;99.90;;;;;;5091142;28;20193;-78
2023/09/12 04:15:19;;;;;;;0.00;0.00;;;19.70;99.90;;;;;;5087861;28;20193;-78
2023/09/12 04:17:44;;;;;;;0.00;0.00;;;19.70;99.90;;;;;;5088111;28;20196;-80
2023/09/12 04:20:13;;;;;;;0.00;0.00;;;19.60;99.90;;;;;;5081521;28;20189;-81
2023/09/12 04:22:39;;;;;;;0.00;0.00;;;19.70;99.90;;;;;;5075197;28;20209;-80
2023/09/12 04:25:05;;;;;;;0.00;0.00;;;19.60;99.90;;;;;;5095992;28;20435;-81
2023/09/12 04:27:31;;;;;;;0.00;0.00;;;19.60;99.90;;;;;;5095503;28;20180;-81
2023/09/12 04:29:56;;;;;;;0.00;0.00;;;19.60;99.90;;;;;;5092229;28;20926;-80
2023/09/12 04:32:23;;;;;;;0.00;0.00;;;19.50;99.90;;;;;;5095002;28;20188;-81
2023/09/12 04:34:49;;;;;;;0.00;0.00;;;19.50;99.90;;;;;;5102157;28;20176;-81
2023/09/12 04:37:15;;;;;;;0.00;0.00;;;19.50;99.90;;;;;;5101474;28;20469;-81
2023/09/12 04:39:40;;;;;;;0.00;0.00;;;19.50;99.90;;;;;;5098016;28;21221;-81
2023/09/12 04:42:06;;;;;;;0.00;0.00;;;19.40;99.90;;;;;;5088849;28;20220;-81
2023/09/12 04:44:35;;;;;;;0.00;0.00;;;19.50;99.90;;;;;;5088618;28;20208;-80
2023/09/12 04:47:02;;;;;;;0.00;0.00;;;19.50;99.90;;;;;;5088023;28;20205;-81
2023/09/12 04:49:28;;;;;;;0.00;0.00;;;19.50;99.90;;;;;;5089576;28;20431;-81
2023/09/12 04:51:53;;;;;;;0.00;0.00;;;19.50;99.90;;;;;;5089926;28;20422;-81
2023/09/12 04:54:19;;;;;;;0.00;0.00;;;19.50;99.90;;;;;;5080613;28;20238;-80
2023/09/12 04:56:44;;;;;;;0.00;0.00;;;19.40;99.90;;;;;;5090743;28;20649;-80
2023/09/12 04:59:10;;;;;;;0.00;0.00;;;19.50;99.90;;;;;;5092621;28;20731;-81
2023/09/12 05:01:36;;;;;;;0.00;0.00;;;19.50;99.90;;;;;;5086607;28;20212;-81
2023/09/12 05:04:02;;;;;;;0.00;0.00;;;19.60;99.90;;;;;;5090479;28;20224;-81
2023/09/12 05:06:28;;;;;;;0.00;0.00;;;19.50;99.90;;;;;;5083171;28;20241;-81
2023/09/12 05:08:54;;;;;;;0.00;0.00;;;19.50;99.90;;;;;;5077571;28;21335;-81
2023/09/12 05:11:19;;;;;;;0.00;0.00;;;19.50;99.90;;;;;;5104460;28;20189;-81
2023/09/12 05:13:45;;;;;;;0.00;0.00;;;19.50;99.90;;;;;;5078669;28;20211;-80
2023/09/12 05:16:10;;;;;;;0.00;0.00;;;19.50;99.90;;;;;;5078221;28;20254;-81
2023/09/12 05:18:36;;;;;;;0.00;0.00;;;19.50;99.90;;;;;;5086802;28;20185;-81
2023/09/12 05:21:01;;;;;;;0.00;0.00;;;19.50;99.90;;;;;;5114384;28;20184;-81
2023/09/12 05:23:27;;;;;;;0.00;0.00;;;19.50;99.90;;;;;;5086279;28;20216;-81
2023/09/12 05:25:52;;;;;;;0.00;0.00;;;19.50;99.90;;;;;;5096543;28;20288;-81
2023/09/12 05:28:18;;;;;;;0.00;0.00;;;19.40;99.90;;;;;;5101435;28;20189;-81
2023/09/12 05:30:43;;;;;;;0.00;0.00;;;19.40;99.90;;;;;;5068009;28;20184;-81
2023/09/12 05:33:09;;;;;;;0.00;0.00;;;19.50;99.90;;;;;;5090508;28;20220;-81
2023/09/12 05:35:34;;;;;;;0.00;0.00;;;19.40;99.90;;;;;;5106693;28;20187;-80
2023/09/12 05:38:00;;;;;;;0.00;0.00;;;19.40;99.90;;;;;;5089634;28;20305;-80
2023/09/12 05:40:25;;;;;;;0.00;0.00;;;19.50;99.90;;;;;;5075436;28;20177;-80
2023/09/12 05:42:51;;;;;;;0.00;0.00;;;19.50;99.90;;;;;;5074664;28;20221;-81
2023/09/12 05:45:16;;;;;;;0.00;0.00;;;19.50;99.90;;;;;;5074521;28;20181;-81
2023/09/12 05:47:42;;;;;;;0.00;0.00;;;19.50;99.90;;;;;;5073164;28;20188;-81
2023/09/12 05:50:08;;;;;;;0.00;0.00;;;19.50;99.90;;;;;;5087383;28;20184;-81
2023/09/12 05:52:34;;;;;;;0.00;0.00;;;19.50;99.90;;;;;;5108205;28;20189;-81
2023/09/12 05:54:59;;;;;;;0.00;0.00;;;19.50;99.90;;;;;;5109075;28;20248;-81
2023/09/12 05:57:25;;;;;;;0.00;0.00;;;19.60;99.90;;;;;;5112675;28;20308;-81
2023/09/12 05:59:50;;;;;;;0.00;0.00;;;19.60;99.90;;;;;;5094458;28;20254;-80
2023/09/12 06:02:17;;;;;;;0.00;0.00;;;19.60;99.90;;;;;;5102176;28;20215;-81
2023/09/12 06:04:43;;;;;;;0.00;0.00;;;19.50;99.90;;;;;;5089264;28;20199;-81
2023/09/12 06:07:09;;;;;;;0.00;0.00;;;19.60;99.90;;;;;;5086539;28;20439;-81
2023/09/12 06:09:34;;;;;;;0.00;0.00;;;19.60;99.90;;;;;;5091292;28;20792;-81
2023/09/12 06:12:00;;;;;;;0.00;0.00;;;19.60;99.90;;;;;;5091893;28;20189;-81
2023/09/12 06:14:25;;;;;;;0.00;0.00;;;19.60;99.90;;;;;;5091490;28;20193;-81
2023/09/12 06:16:51;;;;;;;0.00;0.00;;;19.50;99.90;;;;;;5092481;28;20189;-81
2023/09/12 06:19:17;;;;;;;0.00;0.00;;;19.50;99.90;;;;;;5087063;28;20196;-80
2023/09/12 06:21:43;;;;;;;0.00;0.00;;;19.50;99.90;;;;;;5089761;28;20201;-80
2023/09/12 06:24:23;;;;;;;0.00;0.00;;;19.50;99.90;;;;;;5071619;28;20435;-81
2023/09/12 06:26:49;;;;;;;0.00;0.00;;;19.60;99.90;;;;;;5087519;28;20176;-80
2023/09/12 06:29:16;;;;;;;0.00;0.00;;;19.50;99.90;;;;;;5089042;28;20852;-81
2023/09/12 06:31:41;;;;;;;0.00;0.00;;;19.60;99.90;;;;;;5093904;28;20217;-81
2023/09/12 06:34:08;;;;;;;0.00;0.00;;;19.70;99.90;;;;;;5105885;28;20992;-81
2023/09/12 06:36:33;;;;;;;0.00;0.00;;;19.70;99.90;;;;;;5107279;28;20177;-81
2023/09/12 06:39:00;;;;;;;0.00;0.00;;;19.80;99.90;;;;;;5086693;28;20453;-80
2023/09/12 06:41:27;;;;;;;0.00;0.00;;;19.90;99.90;;;;;;5081954;28;21226;-80
2023/09/12 06:43:53;;;;;;;0.00;0.00;;;19.90;99.90;;;;;;5086110;28;20447;-81
2023/09/12 06:46:19;;;;;;;0.00;0.00;;;20.00;99.90;;;;;;5084246;28;20527;-81
2023/09/12 06:48:45;;;;;;;0.00;0.00;;;20.10;99.90;;;;;;5090749;28;20185;-81
2023/09/12 06:51:11;;;;;;;0.00;0.00;;;20.10;99.90;;;;;;5087605;28;20314;-81
2023/09/12 06:53:37;;;;;;;0.00;0.00;;;20.20;99.90;;;;;;5088214;28;20958;-81
2023/09/12 06:56:04;;;;;;;0.00;0.00;;;20.20;99.90;;;;;;5094164;28;20435;-82
2023/09/12 06:58:30;;;;;;;0.00;0.00;;;20.30;99.90;;;;;;5073455;28;20233;-81
2023/09/12 07:00:55;;;;;;;0.00;0.00;;;20.30;99.90;;;;;;5090155;28;20782;-81
2023/09/12 07:03:21;;;;;;;0.00;0.00;;;20.30;99.90;;;;;;5095390;28;20216;-81
2023/09/12 07:05:46;;;;;;;0.00;0.00;;;20.40;99.90;;;;;;5091479;28;20188;-78
2023/09/12 07:08:12;;;;;;;0.00;0.00;;;20.40;99.90;;;;;;5103504;28;20188;-78
2023/09/12 07:10:43;;;;;;;0.00;0.00;;;20.40;99.90;;;;;;5071416;28;20184;-78
2023/09/12 07:13:08;;;;;;;0.00;0.00;;;20.30;99.90;;;;;;5090688;28;20178;-78
2023/09/12 07:15:36;;;;;;;0.00;0.00;;;20.40;99.90;;;;;;5089283;28;20418;-78
2023/09/12 07:18:02;;;;;;;0.00;0.00;;;20.40;99.90;;;;;;5090837;28;20185;-76
2023/09/12 07:20:27;;;;;;;0.00;0.00;;;20.40;99.90;;;;;;5090946;28;20958;-79
2023/09/12 07:22:53;;;;;;;0.00;0.00;;;20.40;99.90;;;;;;5089203;28;20548;-80
2023/09/12 07:25:20;;;;;;;0.00;0.00;;;20.40;99.90;;;;;;5090982;28;20194;-79
2023/09/12 07:27:46;;;;;;;0.00;0.00;;;20.30;99.90;;;;;;5087019;28;20181;-79
2023/09/12 07:30:11;;;;;;;0.00;0.00;;;20.30;99.90;;;;;;5089864;28;20453;-80
2023/09/12 07:32:37;;;;;;;0.00;0.00;;;20.40;99.90;;;;;;5090199;28;20636;-79
2023/09/12 07:35:03;;;;;;;0.00;0.00;;;20.50;99.90;;;;;;5095123;28;20722;-79
2023/09/12 07:37:28;;;;;;;0.00;0.00;;;20.60;99.90;;;;;;5087306;28;20218;-80
2023/09/12 07:39:54;;;;;;;0.00;0.00;;;20.50;99.90;;;;;;5074385;28;20199;-80
2023/09/12 07:42:23;;;;;;;0.00;0.00;;;20.60;99.90;;;;;;5087820;28;20586;-79
2023/09/12 07:44:49;;;;;;;0.00;0.00;;;20.50;99.90;;;;;;5094171;28;20180;-79
2023/09/12 07:47:15;;;;;;;0.00;0.00;;;20.60;99.90;;;;;;5088830;28;20508;-80
2023/09/12 07:49:40;;;;;;;0.00;0.00;;;20.60;99.90;;;;;;5081183;28;20185;-80
2023/09/12 07:52:07;;;;;;;0.00;0.00;;;20.60;99.90;;;;;;5083963;28;20944;-80
2023/09/12 07:54:32;;;;;;;0.00;0.00;;;20.60;99.90;;;;;;5087033;28;20563;-80
2023/09/12 07:56:58;;;;;;;0.00;0.00;;;20.60;99.90;;;;;;5091318;28;20443;-80
2023/09/12 07:59:24;;;;;;;0.00;0.00;;;20.60;99.90;;;;;;5088569;28;20235;-80
2023/09/12 08:01:51;;;;;;;0.00;0.00;;;20.70;99.90;;;;;;5085100;28;20224;-80
2023/09/12 08:04:17;;;;;;;0.00;0.00;;;20.80;99.90;;;;;;5097235;28;21047;-81
2023/09/12 08:06:42;;;;;;;0.00;0.00;;;20.80;99.90;;;;;;5094659;28;20470;-81
2023/09/12 08:09:09;;;;;;;0.00;0.00;;;20.80;99.90;;;;;;5069168;28;20329;-80
2023/09/12 08:11:35;;;;;;;0.00;0.00;;;20.80;99.90;;;;;;5092892;28;20239;-80
2023/09/12 08:14:01;;;;;;;0.00;0.00;;;20.80;99.90;;;;;;5084430;28;20931;-79
2023/09/12 08:16:26;;;;;;;0.00;0.00;;;20.90;99.90;;;;;;5083829;28;20193;-79
2023/09/12 08:18:52;;;;;;;0.00;0.00;;;21.00;99.90;;;;;;5084866;28;20239;-80
2023/09/12 08:21:17;;;;;;;0.00;0.00;;;21.00;99.90;;;;;;5084587;28;20185;-80
2023/09/12 08:23:43;;;;;;;0.00;0.00;;;21.10;99.90;;;;;;5083449;28;20602;-79
2023/09/12 08:26:09;;;;;;;0.00;0.00;;;21.10;99.90;;;;;;5085661;28;20181;-79
2023/09/12 08:28:34;;;;;;;0.00;0.00;;;21.20;99.90;;;;;;5089607;28;20195;-79
2023/09/12 08:31:00;;;;;;;0.00;0.00;;;21.20;99.90;;;;;;5070948;28;20193;-80
2023/09/12 08:33:25;;;;;;;0.00;0.00;;;21.30;99.90;;;;;;5082773;28;20226;-80
2023/09/12 08:35:51;;;;;;;0.00;0.00;;;21.40;99.90;;;;;;5089529;28;20181;-80
2023/09/12 08:38:16;;;;;;;0.00;0.00;;;21.40;99.90;;;;;;5095594;28;20711;-80
2023/09/12 08:40:49;;;;;;;0.00;0.00;;;21.50;99.90;;;;;;5090687;28;20242;-81
2023/09/12 08:43:15;;;;;;;0.00;0.00;;;21.60;99.90;;;;;;5069427;28;21349;-81
2023/09/12 08:45:43;;;;;;;0.00;0.00;;;21.70;99.90;;;;;;5088336;28;20483;-80
2023/09/12 08:48:10;;;;;;;0.00;0.00;;;21.80;99.90;;;;;;5088245;28;20181;-80
2023/09/12 08:50:35;;;;;;;0.00;0.00;;;21.90;99.90;;;;;;5084589;28;20834;-80
2023/09/12 08:53:03;;;;;;;0.00;0.00;;;22.20;99.90;;;;;;5086047;28;20447;-80
2023/09/12 08:55:29;;;;;;;0.00;0.00;;;22.50;99.90;;;;;;5091135;28;20173;-81
2023/09/12 08:57:55;;;;;;;0.00;0.00;;;22.50;99.90;;;;;;5089103;28;20479;-80
2023/09/12 09:00:22;;;;;;;0.00;0.00;;;22.60;99.90;;;;;;5087646;28;20530;-80
2023/09/12 09:02:49;;;;;;;0.00;0.00;;;22.70;99.90;;;;;;5082746;28;20481;-81
2023/09/12 09:05:17;;;;;;;0.00;0.00;;;22.70;99.90;;;;;;5070547;28;20479;-80
2023/09/12 09:07:43;;;;;;;0.00;0.00;;;22.70;99.90;;;;;;5087420;28;20458;-80
2023/09/12 09:10:17;;;;;;;0.00;0.00;;;22.70;99.90;;;;;;5088296;28;20438;-80
2023/09/12 09:12:45;;;;;;;0.00;0.00;;;22.70;99.90;;;;;;5086357;28;20451;-80
2023/09/12 09:15:28;;;;;;;0.00;0.00;;;22.90;99.90;;;;;;5089442;28;20424;-81
2023/09/12 09:17:55;;;;;;;0.00;0.00;;;23.00;99.90;;;;;;5088787;28;20935;-80
2023/09/12 09:20:29;;;;;;;0.00;0.00;;;23.00;99.90;;;;;;5089636;28;20435;-80
2023/09/12 09:23:05;;;;;;;0.00;0.00;;;23.00;99.90;;;;;;5084703;28;20489;-79
2023/09/12 09:25:41;;;;;;;0.00;0.00;;;23.00;99.90;;;;;;5064589;28;21083;-79
2023/09/12 09:28:17;;;;;;;0.00;0.00;;;23.20;99.90;;;;;;5081825;28;21036;-80
2023/09/12 09:30:45;;;;;;;0.00;0.00;;;23.40;99.90;;;;;;5082220;28;20435;-80
2023/09/12 09:33:12;;;;;;;0.00;0.00;;;23.50;99.90;;;;;;5068972;28;20447;-81
2023/09/12 09:35:38;;;;;;;0.00;0.00;;;23.50;99.90;;;;;;5086651;28;20934;-80
2023/09/12 09:38:06;;;;;;;0.00;0.00;;;23.80;99.90;;;;;;5072243;28;20541;-81
2023/09/12 09:40:33;;;;;;;0.00;0.00;;;24.10;99.90;;;;;;5094070;28;20874;-80
2023/09/12 09:43:00;;;;;;;0.00;0.00;;;23.90;99.90;;;;;;5094539;28;20475;-80
2023/09/12 09:45:26;;;;;;;0.00;0.00;;;23.50;99.90;;;;;;5070985;28;20439;-80
2023/09/12 09:47:52;;;;;;;0.00;0.00;;;23.50;99.90;;;;;;5073645;28;20902;-80
2023/09/12 09:50:17;;;;;;;0.00;0.00;;;23.40;99.90;;;;;;5092039;28;20431;-80
2023/09/12 09:52:44;;;;;;;0.00;0.00;;;23.50;99.90;;;;;;5075769;28;20192;-81
2023/09/12 09:55:15;;;;;;;0.00;0.00;;;23.50;99.90;;;;;;5111115;28;20568;-81
2023/09/12 09:57:41;;;;;;;0.00;0.00;;;23.70;99.90;;;;;;5092650;28;20542;-81
2023/09/12 10:00:11;;;;;;;0.00;0.00;;;23.80;99.90;;;;;;5076184;28;20845;-79
2023/09/12 10:02:38;;;;;;;0.00;0.00;;;23.90;99.90;;;;;;5089394;28;20201;-80
2023/09/12 10:05:05;;;;;;;0.00;0.00;;;24.10;99.90;;;;;;5073665;28;20534;-80
2023/09/12 10:07:37;;;;;;;0.00;0.00;;;23.70;99.90;;;;;;5071235;28;21019;-79
2023/09/12 10:10:04;;;;;;;0.00;0.00;;;24.00;99.90;;;;;;5107839;28;20561;-79
2023/09/12 10:12:34;;;;;;;0.00;0.00;;;24.20;99.90;;;;;;5090544;28;20435;-79
2023/09/12 10:15:00;;;;;;;0.00;0.00;;;24.20;99.90;;;;;;5072885;28;20439;-80
2023/09/12 10:17:34;;;;;;;0.00;0.00;;;24.10;99.90;;;;;;5090492;28;20484;-80
2023/09/12 10:20:09;;;;;;;0.00;0.00;;;24.00;99.90;;;;;;5068368;28;20439;-80
2023/09/12 10:22:39;;;;;;;0.00;0.00;;;24.20;99.90;;;;;;5088144;28;20509;-80
2023/09/12 10:25:05;;;;;;;0.00;0.00;;;24.30;99.90;;;;;;5073204;28;20442;-80
2023/09/12 10:27:33;;;;;;;0.00;0.00;;;24.30;99.90;;;;;;5072901;28;20449;-81
2023/09/12 10:29:59;;;;;;;0.00;0.00;;;24.50;99.90;;;;;;5074005;28;20431;-82
2023/09/12 10:32:27;;;;;;;0.00;0.00;;;24.70;99.90;;;;;;5070724;28;20908;-81
2023/09/12 10:34:53;;;;;;;0.00;0.00;;;24.90;99.90;;;;;;5071427;28;20446;-80
2023/09/12 10:37:22;;;;;;;0.00;0.00;;;25.20;99.90;;;;;;5090568;28;20458;-80
2023/09/12 10:39:49;;;;;;;0.00;0.00;;;25.30;99.90;;;;;;5089425;28;20454;-81
2023/09/12 10:42:16;;;;;;;0.00;0.00;;;24.90;99.90;;;;;;5079648;28;20509;-80
2023/09/12 10:44:44;;;;;;;0.00;0.00;;;24.70;99.90;;;;;;5073667;28;20450;-80
2023/09/12 10:47:11;;;;;;;0.00;0.00;;;24.50;99.90;;;;;;5084384;28;20483;-79
2023/09/12 10:49:37;;;;;;;0.00;0.00;;;24.20;99.90;;;;;;5090355;28;20461;-80
2023/09/12 10:52:03;;;;;;;0.00;0.00;;;24.20;99.90;;;;;;5088622;28;20443;-80
2023/09/12 10:54:40;;;;;;;0.00;0.00;;;23.90;99.90;;;;;;5093288;28;20185;-80
2023/09/12 10:57:13;;;;;;;0.00;0.00;;;23.90;99.90;;;;;;5095132;28;20470;-80
2023/09/12 11:00:01;;;;;;;0.00;0.00;;;24.10;99.90;;;;;;5082279;28;21016;-80
2023/09/12 11:02:30;;;;;;;0.00;0.00;;;24.40;99.90;;;;;;5085192;28;20528;-80
2023/09/12 11:04:57;;;;;;;0.00;0.00;;;24.70;99.90;;;;;;5095079;28;21008;-80
2023/09/12 11:07:33;;;;;;;0.00;0.00;;;24.80;99.90;;;;;;5113254;28;20944;-80
2023/09/12 11:10:19;;;;;;;0.00;0.00;;;24.80;99.90;;;;;;5086059;28;20426;-80
2023/09/12 11:12:53;;;;;;;0.00;0.00;;;25.00;99.90;;;;;;5090021;28;20490;-80
2023/09/12 11:15:22;;;;;;;0.00;0.00;;;24.70;99.90;;;;;;5086317;28;20519;-80
2023/09/12 11:17:49;;;;;;;0.00;0.00;;;24.80;99.90;;;;;;5091250;28;20451;-81
2023/09/12 11:20:16;;;;;;;0.00;0.00;;;24.70;99.90;;;;;;5087340;28;20479;-80
2023/09/12 11:22:43;;;;;;;0.00;0.00;;;24.70;99.90;;;;;;5086232;28;20491;-78
2023/09/12 11:25:28;;;;;;;0.00;0.00;;;24.80;99.90;;;;;;5093795;28;21013;-79
2023/09/12 11:27:53;;;;;;;0.00;0.00;;;24.60;99.90;;;;;;5089412;28;20450;-81
2023/09/12 11:30:21;;;;;;;0.00;0.00;;;24.50;99.90;;;;;;5090962;28;20803;-80
2023/09/12 11:32:50;;;;;;;0.00;0.00;;;24.50;99.90;;;;;;5072863;28;20181;-81
2023/09/12 11:35:16;;;;;;;0.00;0.00;;;24.70;99.90;;;;;;5091014;28;20435;-79
2023/09/12 11:37:49;;;;;;;0.00;0.00;;;24.70;99.90;;;;;;5109414;28;20458;-79
2023/09/12 11:40:16;;;;;;;0.00;0.00;;;24.50;99.90;;;;;;5091836;28;20985;-80
2023/09/12 11:42:42;;;;;;;0.00;0.00;;;24.40;99.90;;;;;;5090053;28;20981;-81
2023/09/12 11:45:09;;;;;;;0.00;0.00;;;24.70;99.90;;;;;;5089487;28;20534;-80
2023/09/12 11:47:40;;;;;;;0.00;0.00;;;25.00;99.90;;;;;;5091554;28;20447;-80
2023/09/12 11:50:06;;;;;;;0.00;0.00;;;25.30;99.90;;;;;;5070953;28;20538;-80
2023/09/12 11:52:37;;;;;;;0.00;0.00;;;25.20;99.90;;;;;;5090214;28;20522;-81
2023/09/12 11:55:03;;;;;;;0.00;0.00;;;25.20;99.90;;;;;;5101717;28;20443;-80
2023/09/12 11:57:29;;;;;;;0.00;0.00;;;24.80;99.90;;;;;;5070673;28;20481;-80
2023/09/12 11:59:56;;;;;;;0.00;0.00;;;24.40;99.90;;;;;;5072418;28;20204;-80
2023/09/12 12:02:22;;;;;;;0.00;0.00;;;24.00;99.90;;;;;;5066652;28;20468;-80
2023/09/12 12:04:47;;;;;;;0.00;0.00;;;23.80;99.90;;;;;;5095090;28;20438;-80
2023/09/12 12:07:13;;;;;;;0.00;0.00;;;23.70;99.90;;;;;;5090283;28;20448;-80
2023/09/12 12:09:39;;;;;;;0.00;0.00;;;23.60;99.90;;;;;;5088542;28;20300;-80
2023/09/12 12:12:14;;;;;;;0.00;0.00;;;23.60;99.90;;;;;;5072561;28;20668;-81
2023/09/12 12:14:41;;;;;;;0.00;0.00;;;23.60;99.90;;;;;;5095153;28;20200;-81
2023/09/12 12:17:11;;;;;;;0.00;0.00;;;23.70;99.90;;;;;;5087841;28;20524;-81
2023/09/12 12:19:37;;;;;;;0.00;0.00;;;23.70;99.90;;;;;;5072301;28;20446;-81
2023/09/12 12:22:05;;;;;;;0.00;0.00;;;23.60;99.90;;;;;;5089403;28;20471;-80
2023/09/12 12:24:39;;;;;;;0.00;0.00;;;23.60;99.90;;;;;;5095433;28;20431;-81
2023/09/12 12:27:05;;;;;;;0.00;0.00;;;23.70;99.90;;;;;;5087328;28;20499;-81
2023/09/12 12:29:33;;;;;;;0.00;0.00;;;24.10;99.90;;;;;;5071732;28;20435;-79
2023/09/12 12:32:02;;;;;;;0.00;0.00;;;24.40;99.90;;;;;;5088986;28;20657;-82
2023/09/12 12:34:28;;;;;;;0.00;0.00;;;24.50;99.90;;;;;;5089707;28;20434;-80
2023/09/12 12:36:55;;;;;;;0.00;0.00;;;24.50;99.90;;;;;;5089717;28;20447;-81
2023/09/12 12:39:21;;;;;;;0.00;0.00;;;24.50;99.90;;;;;;5092845;28;20513;-80
2023/09/12 12:41:47;;;;;;;0.00;0.00;;;24.50;99.90;;;;;;5089810;28;20480;-80
2023/09/12 12:44:13;;;;;;;0.00;0.00;;;24.30;99.90;;;;;;5091813;28;20435;-79
2023/09/12 12:46:53;;;;;;;0.00;0.00;;;24.30;99.90;;;;;;5085891;28;20241;-80